Time,TemperatureF,DewpointF,PressureIn,WindDirection,WindDirectionDegrees,WindSpeedMPH,WindSpeedGustMPH,Humidity,HourlyPrecipIn,Conditions,Clouds,dailyrainin,SoftwareType,DateUTC
2013-04-19 00:14:00,46.7,17.0,30.24,NNE,19,6.0,7.0,30,0.00,,,0.00,weatherlink.com 1.10,2013-04-19 07:14:00,
2013-04-19 00:29:00,46.4,16.0,30.24,NNE,27,3.0,6.0,29,0.00,,,0.00,weatherlink.com 1.10,2013-04-19 07:29:00,
2013-04-19 00:44:00,45.1,17.0,30.24,East,84,1.0,5.0,33,0.00,,,0.00,weatherlink.com 1.10,2013-04-19 07:44:00,
2013-04-19 00:59:00,45.3,16.0,30.24,NE,52,3.0,4.0,31,0.00,,,0.00,weatherlink.com 1.10,2013-04-19 07:59:00,
2013-04-19 01:14:00,43.4,15.0,30.24,NE,38,2.0,4.0,32,0.00,,,0.00,weatherlink.com 1.10,2013-04-19 08:14:00,
2013-04-19 01:29:00,41.7,16.0,30.23,ENE,75,1.0,5.0,36,0.00,,,0.00,weatherlink.com 1.10,2013-04-19 08:29:00,
2013-04-19 01:44:00,40.8,17.0,30.23,East,80,2.0,2.0,39,0.00,,,0.00,weatherlink.com 1.10,2013-04-19 08:44:00,
2013-04-19 02:00:00,37.9,15.0,30.23,East,84,5.0,6.0,40,0.00,,,0.00,weatherlink.com 1.10,2013-04-19 09:00:00,
2013-04-19 02:15:00,40.2,20.0,30.23,ENE,75,1.0,3.0,44,0.00,,,0.00,weatherlink.com 1.10,2013-04-19 09:15:00,
2013-04-19 02:30:00,39.1,17.0,30.23,ENE,68,1.0,4.0,40,0.00,,,0.00,weatherlink.com 1.10,2013-04-19 09:30:00,
2013-04-19 02:45:00,37.8,17.0,30.23,East,86,1.0,3.0,43,0.00,,,0.00,weatherlink.com 1.10,2013-04-19 09:45:00,
2013-04-19 03:00:00,36.3,20.0,30.23,ENE,77,0.0,3.0,53,0.00,,,0.00,weatherlink.com 1.10,2013-04-19 10:00:00,
2013-04-19 03:15:00,38.0,16.0,30.23,ENE,77,2.0,3.0,41,0.00,,,0.00,weatherlink.com 1.10,2013-04-19 10:15:00,
2013-04-19 03:30:00,39.9,15.0,30.23,ENE,73,1.0,3.0,37,0.00,,,0.00,weatherlink.com 1.10,2013-04-19 10:30:00,
2013-04-19 03:45:00,36.8,16.0,30.23,ENE,76,2.0,2.0,43,0.00,,,0.00,weatherlink.com 1.10,2013-04-19 10:45:00,
2013-04-19 04:00:00,37.5,16.0,30.24,ENE,75,3.0,3.0,41,0.00,,,0.00,weatherlink.com 1.10,2013-04-19 11:00:00,
2013-04-19 04:15:00,39.8,16.0,30.23,East,79,0.0,4.0,38,0.00,,,0.00,weatherlink.com 1.10,2013-04-19 11:15:00,
2013-04-19 04:30:00,37.6,19.0,30.23,ENE,67,0.0,3.0,47,0.00,,,0.00,weatherlink.com 1.10,2013-04-19 11:30:00,
2013-04-19 04:45:00,34.0,20.0,30.23,NE,39,1.0,2.0,58,0.00,,,0.00,weatherlink.com 1.10,2013-04-19 11:45:00,
2013-04-19 05:00:00,32.9,20.0,30.23,ENE,60,0.0,3.0,60,0.00,,,0.00,weatherlink.com 1.10,2013-04-19 12:00:00,
2013-04-19 05:15:00,32.6,21.0,30.23,ENE,70,0.0,1.0,62,0.00,,,0.00,weatherlink.com 1.10,2013-04-19 12:15:00,
2013-04-19 05:30:00,33.5,19.0,30.24,ENE,77,2.0,2.0,55,0.00,,,0.00,weatherlink.com 1.10,2013-04-19 12:30:00,
2013-04-19 05:45:00,35.1,18.0,30.24,East,79,0.0,3.0,50,0.00,,,0.00,weatherlink.com 1.10,2013-04-19 12:45:00,
2013-04-19 06:00:00,36.0,16.0,30.24,East,79,0.0,4.0,45,0.00,,,0.00,weatherlink.com 1.10,2013-04-19 13:00:00,
2013-04-19 06:15:00,33.4,19.0,30.24,NE,46,1.0,1.0,56,0.00,,,0.00,weatherlink.com 1.10,2013-04-19 13:15:00,
2013-04-19 06:30:00,33.7,19.0,30.24,East,85,0.0,4.0,56,0.00,,,0.00,weatherlink.com 1.10,2013-04-19 13:30:00,
2013-04-19 06:45:00,33.0,21.0,30.24,NE,44,1.0,2.0,61,0.00,,,0.00,weatherlink.com 1.10,2013-04-19 13:45:00,
2013-04-19 07:00:00,34.0,23.0,30.25,NE,37,1.0,3.0,64,0.00,,,0.00,weatherlink.com 1.10,2013-04-19 14:00:00,
2013-04-19 07:15:00,37.2,24.0,30.25,NE,53,1.0,4.0,59,0.00,,,0.00,weatherlink.com 1.10,2013-04-19 14:15:00,
2013-04-19 07:30:00,39.9,26.0,30.25,NNE,33,1.0,3.0,57,0.00,,,0.00,weatherlink.com 1.10,2013-04-19 14:30:00,
2013-04-19 07:45:00,42.5,26.0,30.26,NE,53,2.0,3.0,52,0.00,,,0.00,weatherlink.com 1.10,2013-04-19 14:45:00,
2013-04-19 08:00:00,45.6,26.0,30.26,NNE,16,1.0,4.0,47,0.00,,,0.00,weatherlink.com 1.10,2013-04-19 15:00:00,
2013-04-19 08:15:00,48.4,27.0,30.26,NNW,331,0.0,2.0,43,0.00,,,0.00,weatherlink.com 1.10,2013-04-19 15:15:00,
2013-04-19 08:30:00,54.9,25.0,30.26,NW,316,3.0,3.0,31,0.00,,,0.00,weatherlink.com 1.10,2013-04-19 15:30:00,
2013-04-19 08:46:00,59.1,18.0,30.26,ENE,70,5.0,8.0,20,0.00,,,0.00,weatherlink.com 1.10,2013-04-19 15:46:00,
2013-04-19 09:01:00,60.9,18.0,30.26,NNW,331,4.0,8.0,19,0.00,,,0.00,weatherlink.com 1.10,2013-04-19 16:01:00,
2013-04-19 09:16:00,62.1,15.0,30.26,NW,317,2.0,7.0,16,0.00,,,0.00,weatherlink.com 1.10,2013-04-19 16:16:00,
2013-04-19 09:31:00,62.8,14.0,30.26,NW,321,3.0,7.0,15,0.00,,,0.00,weatherlink.com 1.10,2013-04-19 16:31:00,
2013-04-19 09:46:00,63.0,14.0,30.25,NNW,336,7.0,9.0,15,0.00,,,0.00,weatherlink.com 1.10,2013-04-19 16:46:00,
2013-04-19 10:01:00,63.6,12.0,30.25,NW,321,5.0,9.0,13,0.00,,,0.00,weatherlink.com 1.10,2013-04-19 17:01:00,
2013-04-19 10:16:00,64.6,14.0,30.25,SSE,159,4.0,6.0,14,0.00,,,0.00,weatherlink.com 1.10,2013-04-19 17:16:00,
2013-04-19 10:31:00,65.0,14.0,30.25,NW,318,1.0,7.0,14,0.00,,,0.00,weatherlink.com 1.10,2013-04-19 17:31:00,
2013-04-19 10:46:00,66.5,12.0,30.24,NNW,347,3.0,5.0,12,0.00,,,0.00,weatherlink.com 1.10,2013-04-19 17:46:00,
2013-04-19 11:01:00,67.2,15.0,30.24,NW,314,3.0,5.0,13,0.00,,,0.00,weatherlink.com 1.10,2013-04-19 18:01:00,
2013-04-19 11:16:00,66.8,8.0,30.23,NNW,340,5.0,9.0,10,0.00,,,0.00,weatherlink.com 1.10,2013-04-19 18:16:00,
2013-04-19 11:31:00,66.7,10.0,30.23,WNW,293,1.0,11.0,11,0.00,,,0.00,weatherlink.com 1.10,2013-04-19 18:31:00,
2013-04-19 11:46:00,67.3,6.0,30.22,ESE,114,3.0,8.0,9,0.00,,,0.00,weatherlink.com 1.10,2013-04-19 18:46:00,
2013-04-19 12:01:00,69.0,10.0,30.21,SSE,147,0.0,7.0,10,0.00,,,0.00,weatherlink.com 1.10,2013-04-19 19:01:00,
2013-04-19 12:16:00,69.7,11.0,30.20,North,5,3.0,8.0,10,0.00,,,0.00,weatherlink.com 1.10,2013-04-19 19:16:00,
2013-04-19 12:31:00,71.0,12.0,30.19,SE,143,1.0,5.0,10,0.00,,,0.00,weatherlink.com 1.10,2013-04-19 19:31:00,
2013-04-19 12:46:00,70.8,11.0,30.18,ESE,104,2.0,12.0,10,0.00,,,0.00,weatherlink.com 1.10,2013-04-19 19:46:00,
2013-04-19 13:01:00,72.4,15.0,30.17,North,349,8.0,10.0,11,0.00,,,0.00,weatherlink.com 1.10,2013-04-19 20:01:00,
2013-04-19 13:16:00,72.0,10.0,30.16,South,170,2.0,5.0,9,0.00,,,0.00,weatherlink.com 1.10,2013-04-19 20:16:00,
2013-04-19 13:31:00,72.8,15.0,30.15,NNE,25,3.0,8.0,11,0.00,,,0.00,weatherlink.com 1.10,2013-04-19 20:31:00,
2013-04-19 13:46:00,71.6,14.0,30.14,NNW,333,10.0,11.0,11,0.00,,,0.00,weatherlink.com 1.10,2013-04-19 20:46:00,
2013-04-19 14:01:00,73.1,11.0,30.14,NW,316,2.0,7.0,9,0.00,,,0.00,weatherlink.com 1.10,2013-04-19 21:01:00,
2013-04-19 14:16:00,73.2,11.0,30.13,East,101,3.0,9.0,9,0.00,,,0.00,weatherlink.com 1.10,2013-04-19 21:16:00,
2013-04-19 14:31:00,74.2,14.0,30.12,NE,44,4.0,11.0,10,0.00,,,0.00,weatherlink.com 1.10,2013-04-19 21:31:00,
2013-04-19 14:47:00,75.2,19.0,30.11,NW,311,12.0,18.0,12,0.00,,,0.00,weatherlink.com 1.10,2013-04-19 21:47:00,
2013-04-19 15:02:00,72.7,22.0,30.11,NW,312,5.0,24.0,15,0.00,,,0.00,weatherlink.com 1.10,2013-04-19 22:02:00,
2013-04-19 15:17:00,72.2,22.0,30.10,NW,317,7.0,21.0,15,0.00,,,0.00,weatherlink.com 1.10,2013-04-19 22:17:00,
2013-04-19 15:32:00,72.3,22.0,30.09,WNW,302,16.0,18.0,15,0.00,,,0.00,weatherlink.com 1.10,2013-04-19 22:32:00,
2013-04-19 15:47:00,71.7,20.0,30.08,NW,307,11.0,20.0,14,0.00,,,0.00,weatherlink.com 1.10,2013-04-19 22:47:00,
2013-04-19 16:02:00,71.4,21.0,30.07,SW,229,8.0,20.0,15,0.00,,,0.00,weatherlink.com 1.10,2013-04-19 23:02:00,
2013-04-19 16:17:00,71.0,22.0,30.07,NW,309,4.0,17.0,16,0.00,,,0.00,weatherlink.com 1.10,2013-04-19 23:17:00,
2013-04-19 16:32:00,69.8,23.0,30.07,WNW,290,16.0,28.0,17,0.00,,,0.00,weatherlink.com 1.10,2013-04-19 23:32:00,
2013-04-19 16:47:00,69.7,23.0,30.07,NW,318,8.0,19.0,17,0.00,,,0.00,weatherlink.com 1.10,2013-04-19 23:47:00,
2013-04-19 17:02:00,68.7,21.0,30.07,WNW,295,13.0,29.0,16,0.00,,,0.00,weatherlink.com 1.10,2013-04-20 00:02:00,
2013-04-19 17:17:00,67.7,21.0,30.06,WNW,295,13.0,28.0,17,0.00,,,0.00,weatherlink.com 1.10,2013-04-20 00:17:00,
2013-04-19 17:32:00,67.9,21.0,30.06,NW,325,7.0,24.0,17,0.00,,,0.00,weatherlink.com 1.10,2013-04-20 00:32:00,
2013-04-19 17:47:00,68.0,23.0,30.06,WNW,293,3.0,14.0,18,0.00,,,0.00,weatherlink.com 1.10,2013-04-20 00:47:00,
2013-04-19 18:02:00,66.8,23.0,30.05,NW,304,2.0,22.0,19,0.00,,,0.00,weatherlink.com 1.10,2013-04-20 01:02:00,
2013-04-19 18:17:00,66.6,24.0,30.04,WNW,301,9.0,17.0,20,0.00,,,0.00,weatherlink.com 1.10,2013-04-20 01:17:00,
2013-04-19 18:32:00,65.0,24.0,30.04,WSW,250,5.0,21.0,21,0.00,,,0.00,weatherlink.com 1.10,2013-04-20 01:32:00,
2013-04-19 18:47:00,63.7,24.0,30.04,SW,224,11.0,17.0,22,0.00,,,0.00,weatherlink.com 1.10,2013-04-20 01:47:00,
2013-04-19 19:02:00,62.6,23.0,30.03,SW,226,9.0,13.0,22,0.00,,,0.00,weatherlink.com 1.10,2013-04-20 02:02:00,
2013-04-19 19:17:00,62.1,23.0,30.03,NW,304,5.0,22.0,22,0.00,,,0.00,weatherlink.com 1.10,2013-04-20 02:17:00,
2013-04-19 19:32:00,62.0,21.0,30.03,NW,321,8.0,26.0,21,0.00,,,0.00,weatherlink.com 1.10,2013-04-20 02:32:00,
2013-04-19 19:47:00,62.1,23.0,30.04,WNW,283,17.0,24.0,22,0.00,,,0.00,weatherlink.com 1.10,2013-04-20 02:47:00,
2013-04-19 20:02:00,62.7,22.0,30.04,NW,307,2.0,14.0,21,0.00,,,0.00,weatherlink.com 1.10,2013-04-20 03:02:00,
2013-04-19 20:17:00,61.3,24.0,30.03,SW,218,0.0,7.0,24,0.00,,,0.00,weatherlink.com 1.10,2013-04-20 03:17:00,
2013-04-19 20:32:00,60.4,24.0,30.03,SSE,160,3.0,16.0,25,0.00,,,0.00,weatherlink.com 1.10,2013-04-20 03:32:00,
2013-04-19 20:47:00,60.2,24.0,30.03,SSW,209,2.0,17.0,25,0.00,,,0.00,weatherlink.com 1.10,2013-04-20 03:47:00,
2013-04-19 21:02:00,60.1,25.0,30.04,SSE,157,6.0,16.0,26,0.00,,,0.00,weatherlink.com 1.10,2013-04-20 04:02:00,
2013-04-19 21:17:00,59.8,26.0,30.04,WNW,298,13.0,23.0,27,0.00,,,0.00,weatherlink.com 1.10,2013-04-20 04:17:00,
2013-04-19 21:32:00,59.2,26.0,30.04,WNW,294,3.0,13.0,28,0.00,,,0.00,weatherlink.com 1.10,2013-04-20 04:32:00,
2013-04-19 21:47:00,59.1,26.0,30.04,WNW,297,7.0,24.0,28,0.00,,,0.00,weatherlink.com 1.10,2013-04-20 04:47:00,
2013-04-19 22:02:00,58.9,27.0,30.04,West,281,3.0,21.0,29,0.00,,,0.00,weatherlink.com 1.10,2013-04-20 05:02:00,
2013-04-19 22:17:00,58.8,26.0,30.04,WNW,290,6.0,15.0,29,0.00,,,0.00,weatherlink.com 1.10,2013-04-20 05:17:00,
2013-04-19 22:32:00,59.0,27.0,30.03,WNW,295,3.0,16.0,30,0.00,,,0.00,weatherlink.com 1.10,2013-04-20 05:32:00,
2013-04-19 22:47:00,59.0,27.0,30.02,North,4,9.0,16.0,30,0.00,,,0.00,weatherlink.com 1.10,2013-04-20 05:47:00,
2013-04-19 23:02:00,59.1,28.0,30.02,NNW,328,9.0,19.0,31,0.00,,,0.00,weatherlink.com 1.10,2013-04-20 06:02:00,
2013-04-19 23:17:00,59.0,28.0,30.02,WNW,298,6.0,15.0,31,0.00,,,0.00,weatherlink.com 1.10,2013-04-20 06:17:00,
2013-04-19 23:32:00,59.0,28.0,30.01,WNW,302,22.0,29.0,31,0.00,,,0.00,weatherlink.com 1.10,2013-04-20 06:32:00,
2013-04-19 23:47:00,58.8,29.0,30.01,WNW,301,7.0,30.0,32,0.00,,,0.00,weatherlink.com 1.10,2013-04-20 06:47:00,